Observation data for Abernathy on 03/24/2019      Previous  Date       Current Mesonet Observations  Soil Data  Daily Summary Page  Observations in Plain Language
KARS 240500Z 22009KT 09/M03 A30 RMK A01 T00921026  RH  044%=      5-min Rain = 0
KARS 240505Z 22009KT 09/M03 A30 RMK A01 T00911026  RH  044%=      5-min Rain = 0
KARS 240510Z 22009KT 09/M03 A30 RMK A01 T00871025  RH  045%=      5-min Rain = 0
KARS 240515Z 22009KT 08/M03 A30 RMK A01 T00821025  RH  047%=      5-min Rain = 0
KARS 240520Z 21009KT 08/M03 A30 RMK A01 T00811025  RH  048%=      5-min Rain = 0
KARS 240525Z 22010KT 08/M02 A30 RMK A01 T00831024  RH  047%=      5-min Rain = 0
KARS 240530Z 22009KT 09/M03 A30 RMK A01 T00861025  RH  046%=      5-min Rain = 0
KARS 240535Z 22009KT 09/M03 A30 RMK A01 T00871026  RH  045%=      5-min Rain = 0
KARS 240540Z 22009KT 09/M03 A30 RMK A01 T00891027  RH  044%=      5-min Rain = 0
KARS 240545Z 22009KT 09/M03 A30 RMK A01 T00901027  RH  044%=      5-min Rain = 0
KARS 240550Z 23009KT 09/M03 A30 RMK A01 T00881027  RH  045%=      5-min Rain = 0
KARS 240555Z 23008KT 09/M03 A30 RMK A01 T00861027  RH  045%=      5-min Rain = 0
KARS 240600Z 23009KT 08/M03 A30 RMK A01 T00811026  RH  047%=      5-min Rain = 0
KARS 240605Z 28009KT 08/M02 A3001 RMK A01 T00751024  RH  050%=      5-min Rain = 0
KARS 240610Z 29009KT 07/M02 A3001 RMK A01 T00681021  RH  054%=      5-min Rain = 0
KARS 240615Z 29008KT 07/M02 A3001 RMK A01 T00721021  RH  052%=      5-min Rain = 0
KARS 240620Z 28007KT 07/M02 A3001 RMK A01 T00691020  RH  054%=      5-min Rain = 0
KARS 240625Z 30007KT 07/M02 A3001 RMK A01 T00651020  RH  055%=      5-min Rain = 0
KARS 240630Z 30008KT 07/M02 A3001 RMK A01 T00661020  RH  054%=      5-min Rain = 0
KARS 240635Z 29007KT 07/M02 A3001 RMK A01 T00661021  RH  054%=      5-min Rain = 0
KARS 240640Z 30007KT 06/M02 A3001 RMK A01 T00641022  RH  055%=      5-min Rain = 0
KARS 240645Z 29007KT 06/M02 A30 RMK A01 T00631023  RH  054%=      5-min Rain = 0
KARS 240650Z 28007KT 07/M02 A30 RMK A01 T00661024  RH  053%=      5-min Rain = 0
KARS 240655Z 29006KT 06/M02 A3001 RMK A01 T00631024  RH  054%=      5-min Rain = 0
KARS 240700Z 29006KT 07/M03 A3001 RMK A01 T00681027  RH  051%=      5-min Rain = 0
KARS 240705Z 29006KT 07/M03 A3001 RMK A01 T00661027  RH  052%=      5-min Rain = 0
KARS 240710Z 29005KT 06/M03 A3001 RMK A01 T00621026  RH  054%=      5-min Rain = 0
KARS 240715Z 29005KT 06/M03 A30 RMK A01 T00571025  RH  056%=      5-min Rain = 0
KARS 240720Z 29006KT 05/M03 A30 RMK A01 T00541025  RH  057%=      5-min Rain = 0
KARS 240725Z 29006KT 06/M03 A30 RMK A01 T00581028  RH  054%=      5-min Rain = 0
KARS 240730Z 29004KT 06/M03 A3001 RMK A01 T00591029  RH  053%=      5-min Rain = 0
KARS 240735Z 29004KT 06/M03 A3001 RMK A01 T00571029  RH  054%=      5-min Rain = 0
KARS 240740Z 28005KT 06/M03 A3001 RMK A01 T00551029  RH  055%=      5-min Rain = 0
KARS 240745Z 28005KT 06/M03 A3001 RMK A01 T00581031  RH  053%=      5-min Rain = 0
KARS 240750Z 28005KT 06/M03 A3001 RMK A01 T00591031  RH  053%=      5-min Rain = 0
KARS 240755Z 28004KT 06/M03 A3001 RMK A01 T00591031  RH  053%=      5-min Rain = 0
KARS 240800Z 28005KT 06/M03 A3001 RMK A01 T00581031  RH  053%=      5-min Rain = 0
KARS 240805Z 28005KT 06/M03 A3001 RMK A01 T00571032  RH  053%=      5-min Rain = 0
KARS 240810Z 29006KT 06/M03 A3001 RMK A01 T00601034  RH  051%=      5-min Rain = 0
KARS 240815Z 28006KT 06/M03 A3001 RMK A01 T00641034  RH  050%=      5-min Rain = 0
KARS 240820Z 28006KT 06/M03 A3001 RMK A01 T00631034  RH  050%=      5-min Rain = 0
KARS 240825Z 27007KT 06/M03 A3001 RMK A01 T00611034  RH  051%=      5-min Rain = 0
KARS 240830Z 27006KT 06/M03 A3001 RMK A01 T00601033  RH  052%=      5-min Rain = 0
KARS 240835Z 27007KT 06/M03 A3001 RMK A01 T00621031  RH  052%=      5-min Rain = 0
KARS 240840Z 28007KT 06/M03 A30 RMK A01 T00611032  RH  052%=      5-min Rain = 0
KARS 240845Z 29008KT 06/M04 A3001 RMK A01 T00641035  RH  049%=      5-min Rain = 0
KARS 240850Z 30008KT 06/M04 A3001 RMK A01 T00621035  RH  050%=      5-min Rain = 0
KARS 240855Z 30007KT 05/M03 A30 RMK A01 T00541032  RH  054%=      5-min Rain = 0
KARS 240900Z 30006KT 05/M03 A30 RMK A01 T00541032  RH  054%=      5-min Rain = 0
KARS 240905Z 31006KT 05/M03 A30 RMK A01 T00511032  RH  055%=      5-min Rain = 0
KARS 240910Z 30005KT 05/M03 A30 RMK A01 T00511031  RH  056%=      5-min Rain = 0
KARS 240915Z 30005KT 05/M03 A30 RMK A01 T00481030  RH  057%=      5-min Rain = 0
KARS 240920Z 30006KT 05/M03 A30 RMK A01 T00471031  RH  058%=      5-min Rain = 0
KARS 240925Z 30006KT 05/M03 A30 RMK A01 T00501031  RH  056%=      5-min Rain = 0
KARS 240930Z 30007KT 05/M03 A30 RMK A01 T00521032  RH  055%=      5-min Rain = 0
KARS 240935Z 31007KT 05/M03 A30 RMK A01 T00491031  RH  057%=      5-min Rain = 0
KARS 240940Z 31007KT 05/M03 A30 RMK A01 T00491031  RH  057%=      5-min Rain = 0
KARS 240945Z 32006KT 06/M03 A30 RMK A01 T00591034  RH  052%=      5-min Rain = 0
KARS 240950Z 33006KT 06/M04 A30 RMK A01 T00581035  RH  051%=      5-min Rain = 0
KARS 240955Z 32007KT 05/M03 A30 RMK A01 T00531034  RH  054%=      5-min Rain = 0
KARS 241000Z 32006KT 06/M03 A30 RMK A01 T00551034  RH  053%=      5-min Rain = 0
KARS 241005Z 32006KT 06/M03 A30 RMK A01 T00561032  RH  053%=      5-min Rain = 0
KARS 241010Z 32006KT 05/M03 A30 RMK A01 T00531031  RH  055%=      5-min Rain = 0
KARS 241015Z 33006KT 05/M03 A30 RMK A01 T00511031  RH  056%=      5-min Rain = 0
KARS 241020Z 34007KT 05/M03 A30 RMK A01 T00501031  RH  056%=      5-min Rain = 0
KARS 241025Z 33008KT 05/M03 A30 RMK A01 T00501030  RH  057%=      5-min Rain = 0
KARS 241030Z 33010KT 05/M03 A30 RMK A01 T00541029  RH  055%=      5-min Rain = 0
KARS 241035Z 33011KT 06/M03 A30 RMK A01 T00621029  RH  053%=      5-min Rain = 0
KARS 241040Z 33010KT 07/M03 A30 RMK A01 T00651028  RH  052%=      5-min Rain = 0
KARS 241045Z 34009KT 06/M03 A30 RMK A01 T00641026  RH  053%=      5-min Rain = 0
KARS 241050Z 34009KT 06/M03 A30 RMK A01 T00621025  RH  054%=      5-min Rain = 0
KARS 241055Z 33009KT 06/M02 A3001 RMK A01 T00601024  RH  055%=      5-min Rain = 0
KARS 241100Z 33009KT 06/M02 A3001 RMK A01 T00591020  RH  057%=      5-min Rain = 0
KARS 241105Z 33009KT 06/M02 A3001 RMK A01 T00581019  RH  058%=      5-min Rain = 0
KARS 241110Z 33010KT 06/M02 A3001 RMK A01 T00571017  RH  060%=      5-min Rain = 0
KARS 241115Z 34010KT 06/M01 A3002 RMK A01 T00581013  RH  061%=      5-min Rain = 0
KARS 241120Z 34010KT 06/M01 A3002 RMK A01 T00591009  RH  063%=      5-min Rain = 0
KARS 241125Z 34011KT 06/M01 A3002 RMK A01 T00591005  RH  064%=      5-min Rain = 0
KARS 241130Z 35011KT 06/M00 A3002 RMK A01 T00581001  RH  066%=      5-min Rain = 0
KARS 241135Z 35012KT 06/00 A3002 RMK A01 T00580002  RH  068%=      5-min Rain = 0
KARS 241140Z 35012KT 06/00 A3002 RMK A01 T00560003  RH  070%=      5-min Rain = 0
KARS 241145Z 35012KT 06/01 A3002 RMK A01 T00550005  RH  071%=      5-min Rain = 0
KARS 241150Z 35012KT 06/01 A3003 RMK A01 T00550006  RH  072%=      5-min Rain = 0
KARS 241155Z 35012KT 05/01 A3003 RMK A01 T00530007  RH  073%=      5-min Rain = 0
KARS 241200Z 35013KT 05/01 A3003 RMK A01 T00530008  RH  074%=      5-min Rain = 0
KARS 241205Z 35013KT 05/01 A3003 RMK A01 T00510009  RH  075%=      5-min Rain = 0
KARS 241210Z 35012KT 05/01 A3003 RMK A01 T00510010  RH  076%=      5-min Rain = 0
KARS 241215Z 35012KT 05/01 A3003 RMK A01 T00500011  RH  077%=      5-min Rain = 0
KARS 241220Z 36011KT 05/01 A3003 RMK A01 T00490012  RH  078%=      5-min Rain = 0
KARS 241225Z 00011KT 05/01 A3003 RMK A01 T00470012  RH  079%=      5-min Rain = 0
KARS 241230Z 00011KT 05/01 A3003 RMK A01 T00460013  RH  080%=      5-min Rain = 0
KARS 241235Z 36010KT 05/01 A3003 RMK A01 T00450013  RH  080%=      5-min Rain = 0
KARS 241240Z 36010KT 05/01 A3004 RMK A01 T00450013  RH  081%=      5-min Rain = 0
KARS 241245Z 35010KT 05/01 A3004 RMK A01 T00450013  RH  081%=      5-min Rain = 0
KARS 241250Z 35011KT 04/01 A3004 RMK A01 T00440013  RH  081%=      5-min Rain = 0
KARS 241255Z 35011KT 04/01 A3004 RMK A01 T00430012  RH  081%=      5-min Rain = 0
KARS 241300Z 35011KT 04/01 A3005 RMK A01 T00430013  RH  082%=      5-min Rain = 0
KARS 241305Z 35011KT 04/01 A3005 RMK A01 T00440013  RH  082%=      5-min Rain = 0
KARS 241310Z 35010KT 04/01 A3005 RMK A01 T00440013  RH  082%=      5-min Rain = 0
KARS 241315Z 35010KT 04/01 A3005 RMK A01 T00440014  RH  082%=      5-min Rain = 0
KARS 241320Z 35010KT 05/01 A3005 RMK A01 T00450014  RH  082%=      5-min Rain = 0
KARS 241325Z 35010KT 05/02 A3006 RMK A01 T00460015  RH  081%=      5-min Rain = 0
KARS 241330Z 36009KT 05/02 A3006 RMK A01 T00480016  RH  081%=      5-min Rain = 0
KARS 241335Z 00009KT 05/02 A3006 RMK A01 T00500018  RH  081%=      5-min Rain = 0
KARS 241340Z 00008KT 05/02 A3007 RMK A01 T00510018  RH  081%=      5-min Rain = 0
KARS 241345Z 01008KT 05/02 A3007 RMK A01 T00520019  RH  080%=      5-min Rain = 0
KARS 241350Z 36008KT 06/02 A3007 RMK A01 T00560022  RH  080%=      5-min Rain = 0
KARS 241355Z 36008KT 06/02 A3007 RMK A01 T00600023  RH  078%=      5-min Rain = 0
KARS 241400Z 35009KT 06/02 A3008 RMK A01 T00620024  RH  077%=      5-min Rain = 0
KARS 241405Z 36008KT 07/02 A3008 RMK A01 T00650024  RH  076%=      5-min Rain = 0
KARS 241410Z 36009KT 07/03 A3008 RMK A01 T00670025  RH  076%=      5-min Rain = 0
KARS 241415Z 01008KT 07/03 A3008 RMK A01 T00720028  RH  075%=      5-min Rain = 0
KARS 241420Z 01009KT 08/03 A3008 RMK A01 T00750027  RH  073%=      5-min Rain = 0
KARS 241425Z 01010KT 08/03 A3008 RMK A01 T00760027  RH  072%=      5-min Rain = 0
KARS 241430Z 02010KT 08/03 A3008 RMK A01 T00770027  RH  072%=      5-min Rain = 0
KARS 241435Z 02010KT 08/03 A3008 RMK A01 T00790028  RH  071%=      5-min Rain = 0
KARS 241440Z 02010KT 09/03 A3008 RMK A01 T00860030  RH  069%=      5-min Rain = 0
KARS 241445Z 03011KT 09/03 A3009 RMK A01 T00910031  RH  067%=      5-min Rain = 0
KARS 241450Z 02012KT 10/03 A3009 RMK A01 T00980030  RH  064%=      5-min Rain = 0
KARS 241455Z 03010KT 10/03 A3009 RMK A01 T00990028  RH  063%=      5-min Rain = 0
KARS 241500Z 02010KT 10/03 A3009 RMK A01 T00990028  RH  062%=      5-min Rain = 0
KARS 241505Z 03009KT 10/03 A301 RMK A01 T01020029  RH  062%=      5-min Rain = 0
KARS 241510Z 03010KT 11/03 A301 RMK A01 T01060029  RH  060%=      5-min Rain = 0
KARS 241515Z 03011KT 11/03 A301 RMK A01 T01080029  RH  059%=      5-min Rain = 0
KARS 241520Z 03010KT 11/03 A301 RMK A01 T01100030  RH  059%=      5-min Rain = 0
KARS 241525Z 03008KT 11/03 A301 RMK A01 T01130032  RH  058%=      5-min Rain = 0
KARS 241530Z 05008KT 12/03 A301 RMK A01 T01180032  RH  057%=      5-min Rain = 0
KARS 241535Z 05009KT 12/03 A301 RMK A01 T01220032  RH  055%=      5-min Rain = 0
KARS 241540Z 05009KT 12/03 A301 RMK A01 T01220032  RH  055%=      5-min Rain = 0
KARS 241545Z 04009KT 12/03 A301 RMK A01 T01230031  RH  054%=      5-min Rain = 0
KARS 241550Z 05009KT 12/03 A301 RMK A01 T01230030  RH  054%=      5-min Rain = 0
KARS 241555Z 04009KT 13/03 A301 RMK A01 T01270031  RH  053%=      5-min Rain = 0
KARS 241600Z 04009KT 13/03 A301 RMK A01 T01310031  RH  052%=      5-min Rain = 0
KARS 241605Z 04009KT 13/03 A3011 RMK A01 T01310029  RH  051%=      5-min Rain = 0
KARS 241610Z 03008KT 13/03 A3011 RMK A01 T01310029  RH  051%=      5-min Rain = 0
KARS 241615Z 04008KT 13/03 A301 RMK A01 T01320029  RH  050%=      5-min Rain = 0
KARS 241620Z 05009KT 14/03 A301 RMK A01 T01350029  RH  049%=      5-min Rain = 0
KARS 241625Z 04008KT 14/03 A3011 RMK A01 T01360030  RH  050%=      5-min Rain = 0
KARS 241630Z 05008KT 14/03 A301 RMK A01 T01380029  RH  049%=      5-min Rain = 0
KARS 241635Z 05008KT 14/03 A301 RMK A01 T01390029  RH  048%=      5-min Rain = 0
KARS 241640Z 05007KT 14/03 A301 RMK A01 T01410030  RH  048%=      5-min Rain = 0
KARS 241645Z 05007KT 15/04 A3009 RMK A01 T01470035  RH  048%=      5-min Rain = 0
KARS 241650Z 05006KT 15/04 A301 RMK A01 T01520036  RH  047%=      5-min Rain = 0
KARS 241655Z 02007KT 15/04 A301 RMK A01 T01490035  RH  047%=      5-min Rain = 0
KARS 241700Z 04006KT 15/03 A301 RMK A01 T01510034  RH  046%=      5-min Rain = 0
KARS 241705Z 04006KT 15/03 A301 RMK A01 T01530034  RH  046%=      5-min Rain = 0
KARS 241710Z 01007KT 16/04 A301 RMK A01 T01580035  RH  045%=      5-min Rain = 0
KARS 241715Z 00008KT 16/03 A301 RMK A01 T01620033  RH  043%=      5-min Rain = 0
KARS 241720Z 04006KT 16/03 A301 RMK A01 T01600032  RH  043%=      5-min Rain = 0
KARS 241725Z 04006KT 16/03 A301 RMK A01 T01640031  RH  042%=      5-min Rain = 0
KARS 241730Z 06006KT 17/03 A301 RMK A01 T01650033  RH  042%=      5-min Rain = 0
KARS 241735Z 07005KT 17/03 A301 RMK A01 T01680033  RH  041%=      5-min Rain = 0
KARS 241740Z 05005KT 17/03 A301 RMK A01 T01680032  RH  041%=      5-min Rain = 0
KARS 241745Z 05006KT 17/03 A301 RMK A01 T01710032  RH  040%=      5-min Rain = 0
KARS 241750Z 03005KT 17/03 A301 RMK A01 T01720030  RH  039%=      5-min Rain = 0
KARS 241755Z 03004KT 18/03 A301 RMK A01 T01790034  RH  039%=      5-min Rain = 0
KARS 241800Z 04003KT 18/03 A301 RMK A01 T01840029  RH  036%=      5-min Rain = 0
KARS 241805Z 02003KT 18/02 A301 RMK A01 T01800022  RH  035%=      5-min Rain = 0
KARS 241810Z 06002KT 18/02 A3009 RMK A01 T01830021  RH  034%=      5-min Rain = 0
KARS 241815Z 04003KT 19/03 A3009 RMK A01 T01870026  RH  035%=      5-min Rain = 0
KARS 241820Z 13004KT 19/02 A3009 RMK A01 T01890023  RH  034%=      5-min Rain = 0
KARS 241825Z 08003KT 19/03 A3009 RMK A01 T01890026  RH  034%=      5-min Rain = 0
KARS 241830Z 07004KT 19/03 A3009 RMK A01 T01870025  RH  035%=      5-min Rain = 0
KARS 241835Z 17002KT 19/02 A3009 RMK A01 T01930019  RH  032%=      5-min Rain = 0
KARS 241840Z 20003KT 19/02 A3009 RMK A01 T01940015  RH  031%=      5-min Rain = 0
KARS 241845Z 30002KT 20/02 A3009 RMK A01 T01950018  RH  031%=      5-min Rain = 0
KARS 241850Z 35002KT 19/01 A3009 RMK A01 T01930014  RH  031%=      5-min Rain = 0
KARS 241855Z 00002KT 19/02 A3009 RMK A01 T01930015  RH  031%=      5-min Rain = 0
KARS 241900Z 05001KT 20/01 A3009 RMK A01 T01950014  RH  030%=      5-min Rain = 0
KARS 241905Z 19001KT 20/02 A3009 RMK A01 T01970017  RH  031%=      5-min Rain = 0
KARS 241910Z 13001KT 20/02 A3009 RMK A01 T02000018  RH  030%=      5-min Rain = 0
KARS 241915Z 14003KT 21/02 A3008 RMK A01 T02060019  RH  029%=      5-min Rain = 0
KARS 241920Z 36003KT 20/02 A3008 RMK A01 T02030023  RH  031%=      5-min Rain = 0
KARS 241925Z 00004KT 20/02 A3008 RMK A01 T02020021  RH  030%=      5-min Rain = 0
KARS 241930Z 00003KT 20/02 A3008 RMK A01 T01970017  RH  030%=      5-min Rain = 0
KARS 241935Z 34004KT 20/02 A3008 RMK A01 T01990020  RH  031%=      5-min Rain = 0
KARS 241940Z 00005KT 20/02 A3007 RMK A01 T02000020  RH  031%=      5-min Rain = 0
KARS 241945Z 35005KT 20/02 A3007 RMK A01 T01970015  RH  030%=      5-min Rain = 0
KARS 241950Z 36003KT 20/02 A3007 RMK A01 T02000015  RH  029%=      5-min Rain = 0
KARS 241955Z 04003KT 20/01 A3007 RMK A01 T02010013  RH  029%=      5-min Rain = 0
KARS 242000Z 01004KT 20/02 A3007 RMK A01 T02040017  RH  029%=      5-min Rain = 0
KARS 242005Z 32005KT 20/01 A3006 RMK A01 T02030013  RH  029%=      5-min Rain = 0
KARS 242010Z 31004KT 20/01 A3006 RMK A01 T01960012  RH  030%=      5-min Rain = 0
KARS 242015Z 33003KT 20/01 A3006 RMK A01 T01990012  RH  029%=      5-min Rain = 0
KARS 242020Z 35003KT 20/01 A3006 RMK A01 T02010013  RH  029%=      5-min Rain = 0
KARS 242025Z 31003KT 20/01 A3006 RMK A01 T02020014  RH  029%=      5-min Rain = 0
KARS 242030Z 30004KT 20/02 A3006 RMK A01 T02030019  RH  030%=      5-min Rain = 0
KARS 242035Z 30002KT 21/01 A3006 RMK A01 T02060013  RH  028%=      5-min Rain = 0
KARS 242040Z 36005KT 21/02 A3005 RMK A01 T02110018  RH  028%=      5-min Rain = 0
KARS 242045Z 02004KT 21/01 A3005 RMK A01 T02100013  RH  027%=      5-min Rain = 0
KARS 242050Z 03004KT 21/02 A3005 RMK A01 T02140016  RH  027%=      5-min Rain = 0
KARS 242055Z 33004KT 21/01 A3006 RMK A01 T02130013  RH  027%=      5-min Rain = 0
KARS 242100Z 34002KT 21/01 A3006 RMK A01 T02110011  RH  027%=      5-min Rain = 0
KARS 242105Z 09002KT 21/01 A3005 RMK A01 T02130013  RH  027%=      5-min Rain = 0
KARS 242110Z 24002KT 22/02 A3005 RMK A01 T02180016  RH  027%=      5-min Rain = 0
KARS 242115Z 25004KT 21/01 A3005 RMK A01 T02120008  RH  026%=      5-min Rain = 0
KARS 242120Z 23004KT 21/01 A3005 RMK A01 T02130005  RH  025%=      5-min Rain = 0
KARS 242125Z 25002KT 22/01 A3005 RMK A01 T02150005  RH  025%=      5-min Rain = 0
KARS 242130Z 16003KT 22/01 A3005 RMK A01 T02160009  RH  026%=      5-min Rain = 0
KARS 242135Z 15003KT 22/00 A3005 RMK A01 T02170003  RH  024%=      5-min Rain = 0
KARS 242140Z 13002KT 22/00 A3005 RMK A01 T02170004  RH  025%=      5-min Rain = 0
KARS 242145Z 25003KT 22/01 A3005 RMK A01 T02170005  RH  025%=      5-min Rain = 0
KARS 242150Z 33005KT 22/01 A3005 RMK A01 T02170007  RH  025%=      5-min Rain = 0
KARS 242155Z 34005KT 22/01 A3005 RMK A01 T02170009  RH  025%=      5-min Rain = 0
KARS 242200Z 32005KT 22/01 A3005 RMK A01 T02210013  RH  026%=      5-min Rain = 0
KARS 242205Z 26005KT 22/01 A3005 RMK A01 T02180011  RH  026%=      5-min Rain = 0
KARS 242210Z 30005KT 21/M00 A3005 RMK A01 T02131001  RH  024%=      5-min Rain = 0
KARS 242215Z 30005G11KT 21/M00 A3005 RMK A01 T02131001  RH  024%=      5-min Rain = 0
KARS 242220Z 30006KT 21/M00 A3005 RMK A01 T02121003  RH  024%=      5-min Rain = 0
KARS 242225Z 28005KT 21/M00 A3005 RMK A01 T02101003  RH  024%=      5-min Rain = 0
KARS 242230Z 27003KT 21/M00 A3005 RMK A01 T02101003  RH  024%=      5-min Rain = 0
KARS 242235Z 32003KT 22/00 A3005 RMK A01 T02150002  RH  024%=      5-min Rain = 0
KARS 242240Z 31003KT 22/00 A3005 RMK A01 T02190001  RH  024%=      5-min Rain = 0
KARS 242245Z 32002KT 22/00 A3005 RMK A01 T02210003  RH  024%=      5-min Rain = 0
KARS 242250Z 30006KT 22/00 A3005 RMK A01 T02180001  RH  024%=      5-min Rain = 0
KARS 242255Z 28006KT 22/00 A3005 RMK A01 T02180003  RH  024%=      5-min Rain = 0
KARS 242300Z 25003KT 22/00 A3005 RMK A01 T02170001  RH  024%=      5-min Rain = 0
KARS 242305Z 27005KT 22/00 A3004 RMK A01 T02190004  RH  024%=      5-min Rain = 0
KARS 242310Z 31003KT 22/00 A3004 RMK A01 T02180001  RH  024%=      5-min Rain = 0
KARS 242315Z 35001KT 22/M00 A3004 RMK A01 T02171001  RH  024%=      5-min Rain = 0
KARS 242320Z 14001KT 22/M00 A3004 RMK A01 T02221001  RH  023%=      5-min Rain = 0
KARS 242325Z 18002KT 22/00 A3003 RMK A01 T02230000  RH  023%=      5-min Rain = 0
KARS 242330Z 23003KT 22/00 A3004 RMK A01 T02200003  RH  024%=      5-min Rain = 0
KARS 242335Z 27006KT 22/01 A3004 RMK A01 T02190006  RH  025%=      5-min Rain = 0
KARS 242340Z 28004KT 22/00 A3004 RMK A01 T02170004  RH  025%=      5-min Rain = 0
KARS 242345Z 25004KT 22/00 A3004 RMK A01 T02170003  RH  024%=      5-min Rain = 0
KARS 242350Z 27004KT 22/00 A3004 RMK A01 T02170001  RH  024%=      5-min Rain = 0
KARS 242355Z 25003KT 22/01 A3004 RMK A01 T02180005  RH  025%=      5-min Rain = 0
KARS 250000Z 22004KT 22/00 A3004 RMK A01 T02170002  RH  024%=      5-min Rain = 0
KARS 250005Z 21002KT 22/00 A3004 RMK A01 T02160004  RH  025%=      5-min Rain = 0
KARS 250010Z 16003KT 22/00 A3004 RMK A01 T02170004  RH  024%=      5-min Rain = 0
KARS 250015Z 14005KT 21/01 A3004 RMK A01 T02140007  RH  025%=      5-min Rain = 0
KARS 250020Z 15005KT 21/01 A3004 RMK A01 T02120006  RH  026%=      5-min Rain = 0
KARS 250025Z 15005KT 21/01 A3004 RMK A01 T02110007  RH  026%=      5-min Rain = 0
KARS 250030Z 15005KT 21/01 A3004 RMK A01 T02090007  RH  026%=      5-min Rain = 0
KARS 250035Z 15004KT 21/01 A3004 RMK A01 T02070007  RH  027%=      5-min Rain = 0
KARS 250040Z 14005KT 20/01 A3004 RMK A01 T02040009  RH  028%=      5-min Rain = 0
KARS 250045Z 15005KT 20/01 A3004 RMK A01 T02010006  RH  028%=      5-min Rain = 0
KARS 250050Z 15004KT 20/01 A3004 RMK A01 T01960007  RH  029%=      5-min Rain = 0
KARS 250055Z 14005KT 19/00 A3004 RMK A01 T01920002  RH  028%=      5-min Rain = 0
KARS 250100Z 14005KT 19/00 A3004 RMK A01 T01870003  RH  029%=      5-min Rain = 0
KARS 250105Z 14006KT 18/00 A3004 RMK A01 T01800004  RH  031%=      5-min Rain = 0
KARS 250110Z 13006KT 17/00 A3004 RMK A01 T01740003  RH  032%=      5-min Rain = 0
KARS 250115Z 13005KT 17/00 A3004 RMK A01 T01710001  RH  032%=      5-min Rain = 0
KARS 250120Z 12006KT 17/00 A3004 RMK A01 T01710000  RH  032%=      5-min Rain = 0
KARS 250125Z 12006KT 17/M01 A3005 RMK A01 T01691007  RH  031%=      5-min Rain = 0
KARS 250130Z 11005KT 17/M01 A3005 RMK A01 T01701008  RH  030%=      5-min Rain = 0
KARS 250135Z 11005KT 17/M01 A3005 RMK A01 T01681011  RH  030%=      5-min Rain = 0
KARS 250140Z 11004KT 16/M01 A3005 RMK A01 T01641012  RH  030%=      5-min Rain = 0
KARS 250145Z 11006KT 16/M01 A3005 RMK A01 T01641010  RH  031%=      5-min Rain = 0
KARS 250150Z 12007KT 16/M01 A3005 RMK A01 T01561013  RH  032%=      5-min Rain = 0
KARS 250155Z 12007KT 15/M02 A3005 RMK A01 T01501015  RH  032%=      5-min Rain = 0
KARS 250200Z 12007KT 15/M01 A3005 RMK A01 T01481014  RH  033%=      5-min Rain = 0
KARS 250205Z 12007KT 15/M02 A3005 RMK A01 T01471016  RH  033%=      5-min Rain = 0
KARS 250210Z 12007KT 15/M02 A3005 RMK A01 T01471018  RH  032%=      5-min Rain = 0
KARS 250215Z 12007KT 15/M02 A3005 RMK A01 T01471017  RH  033%=      5-min Rain = 0
KARS 250220Z 13007KT 14/M02 A3006 RMK A01 T01421017  RH  034%=      5-min Rain = 0
KARS 250225Z 13007KT 14/M02 A3006 RMK A01 T01361015  RH  035%=      5-min Rain = 0
KARS 250230Z 13007KT 14/M01 A3006 RMK A01 T01381010  RH  037%=      5-min Rain = 0
KARS 250235Z 12006KT 14/M02 A3006 RMK A01 T01361017  RH  035%=      5-min Rain = 0
KARS 250240Z 12006KT 13/M02 A3006 RMK A01 T01311019  RH  035%=      5-min Rain = 0
KARS 250245Z 13007KT 13/M02 A3007 RMK A01 T01321015  RH  037%=      5-min Rain = 0
KARS 250250Z 13007KT 13/M01 A3007 RMK A01 T01291011  RH  038%=      5-min Rain = 0
KARS 250255Z 14007KT 13/M01 A3007 RMK A01 T01281008  RH  039%=      5-min Rain = 0
KARS 250300Z 14007KT 12/M01 A3007 RMK A01 T01231007  RH  041%=      5-min Rain = 0
KARS 250305Z 14007KT 12/M01 A3008 RMK A01 T01201006  RH  042%=      5-min Rain = 0
KARS 250310Z 14006KT 12/M01 A3008 RMK A01 T01161005  RH  043%=      5-min Rain = 0
KARS 250315Z 13005KT 12/M01 A3008 RMK A01 T01171008  RH  042%=      5-min Rain = 0
KARS 250320Z 13006KT 12/M01 A3008 RMK A01 T01201008  RH  042%=      5-min Rain = 0
KARS 250325Z 13007KT 12/M01 A3009 RMK A01 T01221008  RH  041%=      5-min Rain = 0
KARS 250330Z 13007KT 12/M01 A3009 RMK A01 T01211010  RH  041%=      5-min Rain = 0
KARS 250335Z 13007KT 12/M01 A3009 RMK A01 T01191010  RH  041%=      5-min Rain = 0
KARS 250340Z 13007KT 12/M01 A3009 RMK A01 T01191010  RH  041%=      5-min Rain = 0
KARS 250345Z 13007KT 12/M01 A301 RMK A01 T01191010  RH  041%=      5-min Rain = 0
KARS 250350Z 09007KT 11/M00 A301 RMK A01 T01091004  RH  046%=      5-min Rain = 0
KARS 250355Z 09007KT 10/M00 A301 RMK A01 T00981002  RH  050%=      5-min Rain = 0
KARS 250400Z 09008KT 10/M01 A301 RMK A01 T00991005  RH  049%=      5-min Rain = 0
KARS 250405Z 09008KT 11/M01 A301 RMK A01 T01061006  RH  046%=      5-min Rain = 0
KARS 250410Z 09007KT 11/M00 A301 RMK A01 T01051001  RH  048%=      5-min Rain = 0
KARS 250415Z 07007KT 10/M00 A3011 RMK A01 T01041002  RH  048%=      5-min Rain = 0
KARS 250420Z 08007KT 10/00 A3011 RMK A01 T01010000  RH  050%=      5-min Rain = 0
KARS 250425Z 10008KT 10/00 A3011 RMK A01 T00980002  RH  052%=      5-min Rain = 0
KARS 250430Z 11007KT 10/00 A3011 RMK A01 T01040003  RH  050%=      5-min Rain = 0
KARS 250435Z 12006KT 10/00 A3011 RMK A01 T01030002  RH  050%=      5-min Rain = 0
KARS 250440Z 11004KT 10/00 A3012 RMK A01 T01010001  RH  051%=      5-min Rain = 0
KARS 250445Z 06003KT 10/00 A3012 RMK A01 T00950002  RH  053%=      5-min Rain = 0
KARS 250450Z 10004KT 09/01 A3012 RMK A01 T00910008  RH  057%=      5-min Rain = 0
KARS 250455Z 12006KT 09/01 A3012 RMK A01 T00930008  RH  056%=      5-min Rain = 0

Page generated in 0.0206 seconds.